createdAt,value
2018-12-31T00:00:33.000Z,4.36
2018-12-31T00:01:32.965Z,4.37
2018-12-31T00:02:32.930Z,4.51
2018-12-31T00:03:32.900Z,4.44
2018-12-31T00:04:32.862Z,4.42
2018-12-31T00:05:32.827Z,4.45
2018-12-31T00:06:32.795Z,4.48
2018-12-31T00:07:32.762Z,4.48
2018-12-31T00:08:32.725Z,4.54
2018-12-31T00:09:32.693Z,4.55
2018-12-31T00:10:32.658Z,4.73
2018-12-31T00:11:32.639Z,4.70
2018-12-31T00:12:32.589Z,4.82
2018-12-31T00:13:32.561Z,4.78
2018-12-31T00:14:32.520Z,4.84
2018-12-31T00:15:34.167Z,4.69
2018-12-31T00:16:32.452Z,4.78
2018-12-31T00:17:32.419Z,4.84
2018-12-31T00:18:32.384Z,4.91
2018-12-31T00:19:32.350Z,4.88
2018-12-31T00:20:32.317Z,4.89
2018-12-31T00:21:32.282Z,4.92
2018-12-31T00:22:32.248Z,4.88
2018-12-31T00:23:32.213Z,4.92
2018-12-31T00:24:32.179Z,4.94
2018-12-31T00:25:32.146Z,4.92
2018-12-31T00:26:32.111Z,4.99
2018-12-31T00:27:32.078Z,4.94
2018-12-31T00:28:32.043Z,4.96
2018-12-31T00:29:32.010Z,4.97
2018-12-31T00:30:31.975Z,4.91
2018-12-31T00:31:31.941Z,4.92
2018-12-31T00:32:31.907Z,4.91
2018-12-31T00:33:31.875Z,5.02
2018-12-31T00:34:31.842Z,5.03
2018-12-31T00:35:31.805Z,5.06
2018-12-31T00:36:31.774Z,5.06
2018-12-31T00:37:31.739Z,5.10
2018-12-31T00:38:31.703Z,5.21
2018-12-31T00:39:31.670Z,5.22
2018-12-31T00:40:31.638Z,5.18
2018-12-31T00:41:31.603Z,5.12
2018-12-31T00:42:31.568Z,5.15
2018-12-31T00:43:31.535Z,5.12
2018-12-31T00:44:31.502Z,5.22
2018-12-31T00:45:31.467Z,5.21
2018-12-31T00:46:31.489Z,5.20
2018-12-31T00:47:31.398Z,5.20
2018-12-31T00:48:31.364Z,5.18
2018-12-31T00:49:31.332Z,5.09
2018-12-31T00:50:31.296Z,5.25
2018-12-31T00:51:31.270Z,5.22
2018-12-31T00:52:31.229Z,5.25
2018-12-31T00:53:31.196Z,5.22
2018-12-31T00:54:31.161Z,5.22
2018-12-31T00:55:31.130Z,5.25
2018-12-31T00:56:31.095Z,5.24
2018-12-31T00:57:31.061Z,5.30
2018-12-31T00:58:31.025Z,5.39
2018-12-31T00:59:30.993Z,5.43
2018-12-31T01:00:30.959Z,5.51
2018-12-31T01:01:30.926Z,5.45
2018-12-31T01:02:30.890Z,5.46
2018-12-31T01:03:30.857Z,5.48
2018-12-31T01:04:30.824Z,5.45
2018-12-31T01:05:30.789Z,5.43
2018-12-31T01:06:30.759Z,5.46
2018-12-31T01:07:30.820Z,5.51
2018-12-31T01:08:30.689Z,5.51
2018-12-31T01:09:30.656Z,5.53
2018-12-31T01:10:30.620Z,5.53
2018-12-31T01:11:30.586Z,5.53
2018-12-31T01:12:30.552Z,5.56
2018-12-31T01:13:30.519Z,5.54
2018-12-31T01:14:30.485Z,5.54
2018-12-31T01:15:30.451Z,5.54
2018-12-31T01:16:30.418Z,5.61
2018-12-31T01:17:30.386Z,5.54
2018-12-31T01:18:30.356Z,5.67
2018-12-31T01:19:30.320Z,5.61
2018-12-31T01:20:30.285Z,5.64
2018-12-31T01:21:30.250Z,5.65
2018-12-31T01:22:30.217Z,5.68
2018-12-31T01:23:30.184Z,5.65
2018-12-31T01:24:30.151Z,5.61
2018-12-31T01:25:30.118Z,5.65
2018-12-31T01:26:30.084Z,5.67
2018-12-31T01:27:30.051Z,5.67
2018-12-31T01:28:30.017Z,5.71
2018-12-31T01:29:29.985Z,5.71
2018-12-31T01:30:29.952Z,5.76
2018-12-31T01:31:29.917Z,5.78
2018-12-31T01:32:29.883Z,5.79
2018-12-31T01:33:29.850Z,5.76
2018-12-31T01:34:29.817Z,5.72
2018-12-31T01:35:29.783Z,5.78
2018-12-31T01:36:29.749Z,5.67
2018-12-31T01:37:29.717Z,5.64
2018-12-31T01:38:29.683Z,5.64
2018-12-31T01:39:29.650Z,5.63
2018-12-31T01:40:29.618Z,5.63
2018-12-31T01:41:29.582Z,5.58
2018-12-31T01:42:29.549Z,5.63
2018-12-31T01:43:29.517Z,5.61
2018-12-31T01:44:29.495Z,5.58
2018-12-31T01:45:29.451Z,5.63
2018-12-31T01:46:29.415Z,5.61
2018-12-31T01:47:29.387Z,5.56
2018-12-31T01:48:29.351Z,5.56
2018-12-31T01:49:29.317Z,5.58
2018-12-31T01:50:29.283Z,5.57
2018-12-31T01:51:29.250Z,5.65
2018-12-31T01:52:29.217Z,5.60
2018-12-31T01:53:29.185Z,5.57
2018-12-31T01:54:29.149Z,5.57
2018-12-31T01:55:29.116Z,5.58
2018-12-31T01:56:29.083Z,5.56
2018-12-31T01:57:29.050Z,5.49
2018-12-31T01:58:29.016Z,5.57
2018-12-31T01:59:28.990Z,5.60
2018-12-31T02:00:28.949Z,5.48
2018-12-31T02:01:28.917Z,5.54
2018-12-31T02:02:28.883Z,5.63
2018-12-31T02:03:28.851Z,5.53
2018-12-31T02:04:28.817Z,5.57
2018-12-31T02:05:28.788Z,5.56
2018-12-31T02:06:28.753Z,5.57
2018-12-31T02:07:28.716Z,5.54
2018-12-31T02:08:28.684Z,5.56
2018-12-31T02:09:28.652Z,5.54
2018-12-31T02:10:28.616Z,5.53
2018-12-31T02:11:28.584Z,5.54
2018-12-31T02:12:28.551Z,5.48
2018-12-31T02:13:28.517Z,5.60
2018-12-31T02:14:28.483Z,5.61
2018-12-31T02:15:28.450Z,5.65
2018-12-31T02:16:28.417Z,5.67
2018-12-31T02:17:28.385Z,5.61
2018-12-31T02:18:28.351Z,5.67
2018-12-31T02:19:28.317Z,5.72
2018-12-31T02:20:28.285Z,5.67
2018-12-31T02:21:28.251Z,5.67
2018-12-31T02:22:28.217Z,5.64
2018-12-31T02:23:28.183Z,5.71
2018-12-31T02:24:28.152Z,5.65
2018-12-31T02:25:28.119Z,5.68
2018-12-31T02:26:28.084Z,5.64
2018-12-31T02:27:28.053Z,5.64
2018-12-31T02:28:28.018Z,5.64
2018-12-31T02:29:27.984Z,5.64
2018-12-31T02:30:27.953Z,5.63
2018-12-31T02:31:27.918Z,5.63
2018-12-31T02:32:27.886Z,5.71
2018-12-31T02:33:27.854Z,5.68
2018-12-31T02:34:27.821Z,5.67
2018-12-31T02:35:27.786Z,5.68
2018-12-31T02:36:27.753Z,5.64
2018-12-31T02:37:27.720Z,5.74
2018-12-31T02:38:27.687Z,5.65
2018-12-31T02:39:27.654Z,5.64
2018-12-31T02:40:27.621Z,5.63
2018-12-31T02:41:27.589Z,5.65
2018-12-31T02:42:27.555Z,5.72
2018-12-31T02:43:27.520Z,5.67
2018-12-31T02:44:27.488Z,5.71
2018-12-31T02:45:27.455Z,5.72
2018-12-31T02:46:27.420Z,5.72
2018-12-31T02:47:27.388Z,5.72
2018-12-31T02:48:27.356Z,5.85
2018-12-31T02:49:27.325Z,5.75
2018-12-31T02:50:27.288Z,5.72
2018-12-31T02:51:27.260Z,5.76
2018-12-31T02:52:27.223Z,5.86
2018-12-31T02:53:27.190Z,5.81
2018-12-31T02:54:27.161Z,5.83
2018-12-31T02:55:27.123Z,5.75
2018-12-31T02:56:27.092Z,5.76
2018-12-31T02:57:27.059Z,5.83
2018-12-31T02:58:27.026Z,5.75
2018-12-31T02:59:26.991Z,5.94
2018-12-31T03:00:26.960Z,5.82
2018-12-31T03:01:26.927Z,5.89
2018-12-31T03:02:26.894Z,5.85
2018-12-31T03:03:26.872Z,5.89
2018-12-31T03:04:26.828Z,5.83
2018-12-31T03:05:26.794Z,5.86
2018-12-31T03:06:26.763Z,5.96
2018-12-31T03:07:26.729Z,5.85
2018-12-31T03:08:26.696Z,5.94
2018-12-31T03:09:26.662Z,5.91
2018-12-31T03:10:26.629Z,5.96
2018-12-31T03:11:26.598Z,5.91
2018-12-31T03:12:26.569Z,5.94
2018-12-31T03:13:26.531Z,5.86
2018-12-31T03:14:26.498Z,5.86
2018-12-31T03:15:26.468Z,5.85
2018-12-31T03:16:26.433Z,5.91
2018-12-31T03:17:26.400Z,5.97
2018-12-31T03:18:26.367Z,5.93
2018-12-31T03:19:26.334Z,5.91
2018-12-31T03:20:26.301Z,5.86
2018-12-31T03:21:26.269Z,5.94
2018-12-31T03:22:26.236Z,5.90
2018-12-31T03:23:26.202Z,5.93
2018-12-31T03:24:26.170Z,5.94
2018-12-31T03:25:26.137Z,5.93
2018-12-31T03:26:26.104Z,5.99
2018-12-31T03:27:26.071Z,6.00
2018-12-31T03:28:26.039Z,5.93
2018-12-31T03:29:26.011Z,6.03
2018-12-31T03:30:25.972Z,6.00
2018-12-31T03:31:25.940Z,6.01
2018-12-31T03:32:25.908Z,6.03
2018-12-31T03:33:25.874Z,6.04
2018-12-31T03:34:25.840Z,6.09
2018-12-31T03:35:25.807Z,6.00
2018-12-31T03:36:25.775Z,6.14
2018-12-31T03:37:25.742Z,6.06
2018-12-31T03:38:25.710Z,6.08
2018-12-31T03:39:26.363Z,6.06
2018-12-31T03:40:25.643Z,6.06
2018-12-31T03:41:25.613Z,6.09
2018-12-31T03:42:25.578Z,6.03
2018-12-31T03:43:25.548Z,6.00
2018-12-31T03:44:27.152Z,6.03
2018-12-31T03:45:25.479Z,6.04
2018-12-31T03:46:25.446Z,6.09
2018-12-31T03:47:25.414Z,6.01
2018-12-31T03:48:25.381Z,6.11
2018-12-31T03:49:25.359Z,6.09
2018-12-31T03:50:25.314Z,6.06
2018-12-31T03:51:25.283Z,6.08
2018-12-31T03:52:25.252Z,6.08
2018-12-31T03:53:25.218Z,6.08
2018-12-31T03:54:25.184Z,6.11
2018-12-31T03:55:25.153Z,6.08
2018-12-31T03:56:25.118Z,6.12
2018-12-31T03:57:25.086Z,6.19
2018-12-31T03:58:25.058Z,6.15
2018-12-31T03:59:25.020Z,6.12
2018-12-31T04:00:24.989Z,6.11
2018-12-31T04:01:24.956Z,6.12
2018-12-31T04:02:24.923Z,6.12
2018-12-31T04:03:24.888Z,6.12
2018-12-31T04:04:24.857Z,6.11
2018-12-31T04:05:24.824Z,6.19
2018-12-31T04:06:24.791Z,6.09
2018-12-31T04:07:24.757Z,6.17
2018-12-31T04:08:24.726Z,6.19
2018-12-31T04:09:24.693Z,6.11
2018-12-31T04:10:24.658Z,6.14
2018-12-31T04:11:24.628Z,6.18
2018-12-31T04:12:24.595Z,6.09
2018-12-31T04:13:24.563Z,6.17
2018-12-31T04:14:24.556Z,6.15
2018-12-31T04:15:24.497Z,6.19
2018-12-31T04:16:24.464Z,6.12
2018-12-31T04:17:24.431Z,6.12
2018-12-31T04:18:24.398Z,6.19
2018-12-31T04:19:24.364Z,6.21
2018-12-31T04:20:24.333Z,6.18
2018-12-31T04:21:24.300Z,6.18
2018-12-31T04:22:24.267Z,6.22
2018-12-31T04:23:24.233Z,6.17
2018-12-31T04:24:24.201Z,6.18
2018-12-31T04:25:24.170Z,6.18
2018-12-31T04:26:24.134Z,6.15
2018-12-31T04:27:24.103Z,6.17
2018-12-31T04:28:24.074Z,6.19
2018-12-31T04:29:24.037Z,6.19
2018-12-31T04:30:24.005Z,6.19
2018-12-31T04:31:23.972Z,6.18
2018-12-31T04:32:23.940Z,6.21
2018-12-31T04:33:23.909Z,6.17
2018-12-31T04:34:23.876Z,6.22
2018-12-31T04:35:23.843Z,6.25
2018-12-31T04:36:23.809Z,6.18
2018-12-31T04:37:23.777Z,6.18
2018-12-31T04:38:23.742Z,6.22
2018-12-31T04:39:23.713Z,6.18
2018-12-31T04:40:23.684Z,6.21
2018-12-31T04:41:23.646Z,6.19
2018-12-31T04:42:23.612Z,6.12
2018-12-31T04:43:23.580Z,6.17
2018-12-31T04:44:23.548Z,6.12
2018-12-31T04:45:23.516Z,6.11
2018-12-31T04:46:23.483Z,6.15
2018-12-31T04:47:23.451Z,6.17
2018-12-31T04:48:23.418Z,6.09
2018-12-31T04:49:23.386Z,6.15
2018-12-31T04:50:23.352Z,6.15
2018-12-31T04:51:23.322Z,6.15
2018-12-31T04:52:23.287Z,6.12
2018-12-31T04:53:23.256Z,6.21
2018-12-31T04:54:23.223Z,6.18
2018-12-31T04:55:23.193Z,6.15
2018-12-31T04:56:23.158Z,6.18
2018-12-31T04:57:23.126Z,6.19
2018-12-31T04:58:23.526Z,6.25
2018-12-31T04:59:23.061Z,6.25
2018-12-31T05:00:23.030Z,6.19
2018-12-31T05:01:22.996Z,6.21
2018-12-31T05:02:22.967Z,6.21
2018-12-31T05:03:22.929Z,6.22
2018-12-31T05:04:22.905Z,6.18
2018-12-31T05:05:22.867Z,6.30
2018-12-31T05:06:22.834Z,6.34
2018-12-31T05:07:22.801Z,6.36
2018-12-31T05:08:22.767Z,6.28
2018-12-31T05:09:22.736Z,6.40
2018-12-31T05:10:22.701Z,6.34
2018-12-31T05:11:22.691Z,6.27
2018-12-31T05:12:22.638Z,6.31
2018-12-31T05:13:22.605Z,6.33
2018-12-31T05:14:22.572Z,6.27
2018-12-31T05:15:22.547Z,6.25
2018-12-31T05:16:22.507Z,6.25
2018-12-31T05:17:22.474Z,6.28
2018-12-31T05:18:22.446Z,6.31
2018-12-31T05:19:22.409Z,6.31
2018-12-31T05:20:22.376Z,6.31
2018-12-31T05:21:22.427Z,6.31
2018-12-31T05:22:22.312Z,6.31
2018-12-31T05:23:22.278Z,6.28
2018-12-31T05:24:22.247Z,6.28
2018-12-31T05:25:22.212Z,6.40
2018-12-31T05:26:22.182Z,6.27
2018-12-31T05:27:22.150Z,6.36
2018-12-31T05:28:22.115Z,6.40
2018-12-31T05:29:22.084Z,6.34
2018-12-31T05:30:22.051Z,6.34
2018-12-31T05:31:22.019Z,6.44
2018-12-31T05:32:21.987Z,6.37
2018-12-31T05:33:21.954Z,6.44
2018-12-31T05:34:21.920Z,6.40
2018-12-31T05:35:21.889Z,6.38
2018-12-31T05:36:21.856Z,6.46
2018-12-31T05:37:21.826Z,6.41
2018-12-31T05:38:21.790Z,6.46
2018-12-31T05:39:21.758Z,6.40
2018-12-31T05:40:21.729Z,6.43
2018-12-31T05:41:21.694Z,6.46
2018-12-31T05:42:21.661Z,6.41
2018-12-31T05:43:21.628Z,6.52
2018-12-31T05:44:21.597Z,6.44
2018-12-31T05:45:21.566Z,6.44
2018-12-31T05:46:21.529Z,6.48
2018-12-31T05:47:21.497Z,6.44
2018-12-31T05:48:21.466Z,6.44
2018-12-31T05:49:21.433Z,6.48
2018-12-31T05:50:21.405Z,6.48
2018-12-31T05:51:21.373Z,6.40
2018-12-31T05:52:21.338Z,6.48
2018-12-31T05:53:21.304Z,6.43
2018-12-31T05:54:21.272Z,6.46
2018-12-31T05:55:22.929Z,6.51
2018-12-31T05:56:21.206Z,6.46
2018-12-31T05:57:21.174Z,6.54
2018-12-31T05:58:21.141Z,6.52
2018-12-31T05:59:21.108Z,6.49
2018-12-31T06:00:21.076Z,6.52
2018-12-31T06:01:21.043Z,6.51
2018-12-31T06:02:21.011Z,6.52
2018-12-31T06:03:20.979Z,6.55
2018-12-31T06:04:20.945Z,6.55
2018-12-31T06:05:20.914Z,6.56
2018-12-31T06:06:20.881Z,6.54
2018-12-31T06:07:20.848Z,6.51
2018-12-31T06:08:20.816Z,6.54
2018-12-31T06:09:20.783Z,6.51
2018-12-31T06:10:20.750Z,6.46
2018-12-31T06:11:20.718Z,6.51
2018-12-31T06:12:20.686Z,6.59
2018-12-31T06:13:20.654Z,6.55
2018-12-31T06:14:20.621Z,6.59
2018-12-31T06:15:20.588Z,6.59
2018-12-31T06:16:20.557Z,6.58
2018-12-31T06:17:20.523Z,6.62
2018-12-31T06:18:20.492Z,6.64
2018-12-31T06:19:20.459Z,6.56
2018-12-31T06:20:20.426Z,6.59
2018-12-31T06:21:20.394Z,6.66
2018-12-31T06:22:20.369Z,6.62
2018-12-31T06:23:20.343Z,6.64
2018-12-31T06:24:20.297Z,6.58
2018-12-31T06:25:20.268Z,6.62
2018-12-31T06:26:20.234Z,6.66
2018-12-31T06:27:20.199Z,6.58
2018-12-31T06:28:20.167Z,6.59
2018-12-31T06:29:20.135Z,6.59
2018-12-31T06:30:20.100Z,6.59
2018-12-31T06:31:20.069Z,6.52
2018-12-31T06:32:20.037Z,6.54
2018-12-31T06:33:20.005Z,6.51
2018-12-31T06:34:19.972Z,6.56
2018-12-31T06:35:19.939Z,6.51
2018-12-31T06:36:19.910Z,6.48
2018-12-31T06:37:19.874Z,6.55
2018-12-31T06:38:19.844Z,6.58
2018-12-31T06:39:19.811Z,6.56
2018-12-31T06:40:19.776Z,6.58
2018-12-31T06:41:19.744Z,6.61
2018-12-31T06:42:19.711Z,6.61
2018-12-31T06:43:19.679Z,6.54
2018-12-31T06:44:19.645Z,6.58
2018-12-31T06:45:19.616Z,6.52
2018-12-31T06:46:19.582Z,6.56
2018-12-31T06:47:19.549Z,6.55
2018-12-31T06:48:19.517Z,6.54
2018-12-31T06:49:19.486Z,6.51
2018-12-31T06:50:19.451Z,6.58
2018-12-31T06:51:19.418Z,6.59
2018-12-31T06:52:19.389Z,6.56
2018-12-31T06:53:19.354Z,6.62
2018-12-31T06:54:19.321Z,6.59
2018-12-31T06:55:19.289Z,6.64
2018-12-31T06:56:19.262Z,6.58
2018-12-31T06:57:19.225Z,6.61
2018-12-31T06:58:19.191Z,6.55
2018-12-31T06:59:19.160Z,6.59
2018-12-31T07:00:19.126Z,6.55
2018-12-31T07:01:19.095Z,6.58
2018-12-31T07:02:19.061Z,6.55
2018-12-31T07:03:19.030Z,6.58
2018-12-31T07:04:18.998Z,6.54
2018-12-31T07:05:18.965Z,6.59
2018-12-31T07:06:18.932Z,6.55
2018-12-31T07:07:18.902Z,6.55
2018-12-31T07:08:18.869Z,6.66
2018-12-31T07:09:18.839Z,6.55
2018-12-31T07:10:18.801Z,6.56
2018-12-31T07:11:18.769Z,6.56
2018-12-31T07:12:18.739Z,6.59
2018-12-31T07:13:18.705Z,6.59
2018-12-31T07:14:18.674Z,6.58
2018-12-31T07:15:18.641Z,6.58
2018-12-31T07:16:18.608Z,6.58
2018-12-31T07:17:18.575Z,6.61
2018-12-31T07:18:18.545Z,6.56
2018-12-31T07:19:18.510Z,6.54
2018-12-31T07:20:18.477Z,6.56
2018-12-31T07:21:18.447Z,6.52
2018-12-31T07:22:18.414Z,6.61
2018-12-31T07:23:18.381Z,6.54
2018-12-31T07:24:18.350Z,6.56
2018-12-31T07:25:18.320Z,6.56
2018-12-31T07:26:18.284Z,6.59
2018-12-31T07:27:18.253Z,6.51
2018-12-31T07:28:18.219Z,6.54
2018-12-31T07:29:18.188Z,6.55
2018-12-31T07:30:18.155Z,6.56
2018-12-31T07:31:18.121Z,6.64
2018-12-31T07:32:18.090Z,6.58
2018-12-31T07:33:18.060Z,6.64
2018-12-31T07:34:18.026Z,6.61
2018-12-31T07:35:17.992Z,6.61
2018-12-31T07:36:17.963Z,6.61
2018-12-31T07:37:17.928Z,6.61
2018-12-31T07:38:17.896Z,6.55
2018-12-31T07:39:17.865Z,6.55
2018-12-31T07:40:17.833Z,6.62
2018-12-31T07:41:17.800Z,6.59
2018-12-31T07:42:17.766Z,6.51
2018-12-31T07:43:17.735Z,6.52
2018-12-31T07:44:17.703Z,6.49
2018-12-31T07:45:17.671Z,6.58
2018-12-31T07:46:17.637Z,6.62
2018-12-31T07:47:17.604Z,6.66
2018-12-31T07:48:17.572Z,6.56
2018-12-31T07:49:17.538Z,6.66
2018-12-31T07:50:17.508Z,6.66
2018-12-31T07:51:17.475Z,6.66
2018-12-31T07:52:17.443Z,6.70
2018-12-31T07:53:17.410Z,6.66
2018-12-31T07:54:17.377Z,6.67
2018-12-31T07:55:17.345Z,6.71
2018-12-31T07:56:17.313Z,6.71
2018-12-31T07:57:17.282Z,6.66
2018-12-31T07:58:17.247Z,6.71
2018-12-31T07:59:17.216Z,6.73
2018-12-31T08:00:17.186Z,6.67
2018-12-31T08:01:17.153Z,6.69
2018-12-31T08:02:17.120Z,6.74
2018-12-31T08:03:17.087Z,6.70
2018-12-31T08:04:17.056Z,6.70
2018-12-31T08:05:17.022Z,6.70
2018-12-31T08:06:16.989Z,6.74
2018-12-31T08:07:16.958Z,6.77
2018-12-31T08:08:16.927Z,6.77
2018-12-31T08:09:16.893Z,6.79
2018-12-31T08:10:16.860Z,6.85
2018-12-31T08:11:16.830Z,6.85
2018-12-31T08:12:16.798Z,6.89
2018-12-31T08:13:16.764Z,6.88
2018-12-31T08:14:16.731Z,6.76
2018-12-31T08:15:16.699Z,6.87
2018-12-31T08:16:16.668Z,6.94
2018-12-31T08:17:16.634Z,6.94
2018-12-31T08:18:16.601Z,6.88
2018-12-31T08:19:16.569Z,6.89
2018-12-31T08:20:16.537Z,6.89
2018-12-31T08:21:16.505Z,6.88
2018-12-31T08:22:16.474Z,6.95
2018-12-31T08:23:16.445Z,6.95
2018-12-31T08:24:16.409Z,6.95
2018-12-31T08:25:16.377Z,7.07
2018-12-31T08:26:16.345Z,7.05
2018-12-31T08:27:16.312Z,7.02
2018-12-31T08:28:16.281Z,6.92
2018-12-31T08:29:16.247Z,6.97
2018-12-31T08:30:16.214Z,6.91
2018-12-31T08:31:16.183Z,6.98
2018-12-31T08:32:16.152Z,6.94
2018-12-31T08:33:16.119Z,7.02
2018-12-31T08:34:16.086Z,7.02
2018-12-31T08:35:16.055Z,7.09
2018-12-31T08:36:16.023Z,7.15
2018-12-31T08:37:15.990Z,7.13
2018-12-31T08:38:15.957Z,7.10
2018-12-31T08:39:15.927Z,7.20
2018-12-31T08:40:15.894Z,7.13
2018-12-31T08:41:15.862Z,7.16
2018-12-31T08:42:15.830Z,7.15
2018-12-31T08:43:15.799Z,7.17
2018-12-31T08:44:15.765Z,7.15
2018-12-31T08:45:15.733Z,7.21
2018-12-31T08:46:15.701Z,7.24
2018-12-31T08:47:15.669Z,7.24
2018-12-31T08:48:15.637Z,7.30
2018-12-31T08:49:15.605Z,7.28
2018-12-31T08:50:15.572Z,7.30
2018-12-31T08:51:15.541Z,7.25
2018-12-31T08:52:15.510Z,7.31
2018-12-31T08:53:15.476Z,7.30
2018-12-31T08:54:15.446Z,7.46
2018-12-31T08:55:15.412Z,7.46
2018-12-31T08:56:15.382Z,7.52
2018-12-31T08:57:15.349Z,7.52
2018-12-31T08:58:15.316Z,7.52
2018-12-31T08:59:15.286Z,7.57
2018-12-31T09:00:15.253Z,7.50
2018-12-31T09:01:15.222Z,7.52
2018-12-31T09:02:15.190Z,7.50
2018-12-31T09:03:15.158Z,7.63
2018-12-31T09:04:15.126Z,7.60
2018-12-31T09:05:15.095Z,7.49
2018-12-31T09:06:15.062Z,7.64
2018-12-31T09:07:15.030Z,7.61
2018-12-31T09:08:14.999Z,7.57
2018-12-31T09:09:14.967Z,7.69
2018-12-31T09:10:14.934Z,7.53
2018-12-31T09:11:14.905Z,7.63
2018-12-31T09:12:14.873Z,7.74
2018-12-31T09:13:14.841Z,7.80
2018-12-31T09:14:14.807Z,7.69
2018-12-31T09:15:14.808Z,7.69
2018-12-31T09:16:14.748Z,7.79
2018-12-31T09:17:14.714Z,7.75
2018-12-31T09:18:14.680Z,7.83
2018-12-31T09:19:14.647Z,7.89
2018-12-31T09:20:14.616Z,7.82
2018-12-31T09:21:14.586Z,7.82
2018-12-31T09:22:14.552Z,7.93
2018-12-31T09:23:14.522Z,7.87
2018-12-31T09:24:14.490Z,8.00
2018-12-31T09:25:14.457Z,8.11
2018-12-31T09:26:14.429Z,8.16
2018-12-31T09:27:14.393Z,8.30
2018-12-31T09:28:14.362Z,8.53
2018-12-31T09:29:14.333Z,8.99
2018-12-31T09:30:14.297Z,9.79
2018-12-31T09:31:14.269Z,9.71
2018-12-31T09:32:14.233Z,9.97
2018-12-31T09:33:14.203Z,9.65
2018-12-31T09:34:14.170Z,9.93
2018-12-31T09:35:14.139Z,10.05
2018-12-31T09:36:14.109Z,10.42
2018-12-31T09:37:14.078Z,10.88
2018-12-31T09:38:14.044Z,10.74
2018-12-31T09:39:14.014Z,10.48
2018-12-31T09:40:13.984Z,10.73
2018-12-31T09:41:13.954Z,10.82
2018-12-31T09:42:13.922Z,10.63
2018-12-31T09:43:13.892Z,10.52
2018-12-31T09:44:13.909Z,10.20
2018-12-31T09:45:13.831Z,10.07
2018-12-31T09:46:13.800Z,9.78
2018-12-31T09:47:13.769Z,9.48
2018-12-31T09:48:13.739Z,9.50
2018-12-31T09:49:13.709Z,9.47
2018-12-31T09:50:13.677Z,9.28
2018-12-31T09:51:13.647Z,9.28
2018-12-31T09:52:13.621Z,9.32
2018-12-31T09:53:13.585Z,9.36
2018-12-31T09:54:13.553Z,9.42
2018-12-31T09:55:13.524Z,9.54
2018-12-31T09:56:13.494Z,9.57
2018-12-31T09:57:13.464Z,9.56
2018-12-31T09:58:13.432Z,9.47
2018-12-31T09:59:13.402Z,9.47
2018-12-31T10:00:13.374Z,9.43
2018-12-31T10:01:13.340Z,9.10
2018-12-31T10:02:13.310Z,9.10
2018-12-31T10:03:13.278Z,8.98
2018-12-31T10:04:13.248Z,8.81
2018-12-31T10:05:13.217Z,8.95
2018-12-31T10:06:13.186Z,8.80
2018-12-31T10:07:13.156Z,8.84
2018-12-31T10:08:13.125Z,8.84
2018-12-31T10:09:13.095Z,8.74
2018-12-31T10:10:13.062Z,8.79
2018-12-31T10:11:13.040Z,8.58
2018-12-31T10:12:13.000Z,8.58
2018-12-31T10:13:12.970Z,8.70
2018-12-31T10:14:12.937Z,8.73
2018-12-31T10:15:12.907Z,8.59
2018-12-31T10:16:12.876Z,8.79
2018-12-31T10:17:12.846Z,8.80
2018-12-31T10:18:12.812Z,8.74
2018-12-31T10:19:12.782Z,8.62
2018-12-31T10:20:12.752Z,8.63
2018-12-31T10:21:12.721Z,8.73
2018-12-31T10:22:12.691Z,8.58
2018-12-31T10:23:12.658Z,8.76
2018-12-31T10:24:12.626Z,8.77
2018-12-31T10:25:12.595Z,8.87
2018-12-31T10:26:12.563Z,8.80
2018-12-31T10:27:12.532Z,8.86
2018-12-31T10:28:12.502Z,8.76
2018-12-31T10:29:12.472Z,8.73
2018-12-31T10:30:12.439Z,8.76
2018-12-31T10:31:12.409Z,8.84
2018-12-31T10:32:12.378Z,8.84
2018-12-31T10:33:12.347Z,8.89
2018-12-31T10:34:12.315Z,8.91
2018-12-31T10:35:12.284Z,8.84
2018-12-31T10:36:12.252Z,8.83
2018-12-31T10:37:12.222Z,8.59
2018-12-31T10:38:12.191Z,8.63
2018-12-31T10:39:12.158Z,8.70
2018-12-31T10:40:12.128Z,8.66
2018-12-31T10:41:12.098Z,8.61
2018-12-31T10:42:12.065Z,8.77
2018-12-31T10:43:12.033Z,8.77
2018-12-31T10:44:12.003Z,8.73
2018-12-31T10:45:11.972Z,8.81
2018-12-31T10:46:11.940Z,8.71
2018-12-31T10:47:11.909Z,8.92
2018-12-31T10:48:11.922Z,8.98
2018-12-31T10:49:11.849Z,8.70
2018-12-31T10:50:11.816Z,8.80
2018-12-31T10:51:11.784Z,8.76
2018-12-31T10:52:11.754Z,8.77
2018-12-31T10:53:11.724Z,8.70
2018-12-31T10:54:11.691Z,8.77
2018-12-31T10:55:11.660Z,8.66
2018-12-31T10:56:11.630Z,8.76
2018-12-31T10:57:11.598Z,8.71
2018-12-31T10:58:11.566Z,8.61
2018-12-31T10:59:11.537Z,8.56
2018-12-31T11:00:11.506Z,8.68
2018-12-31T11:01:11.475Z,8.62
2018-12-31T11:02:11.441Z,8.59
2018-12-31T11:03:11.411Z,8.63
2018-12-31T11:04:11.379Z,8.77
2018-12-31T11:05:11.351Z,8.71
2018-12-31T11:06:11.317Z,8.77
2018-12-31T11:07:11.286Z,8.76
2018-12-31T11:08:11.256Z,8.76
2018-12-31T11:09:11.227Z,8.59
2018-12-31T11:10:11.192Z,8.52
2018-12-31T11:11:11.164Z,8.53
2018-12-31T11:12:11.130Z,8.43
2018-12-31T11:13:11.102Z,8.59
2018-12-31T11:14:11.069Z,8.55
2018-12-31T11:15:11.040Z,8.63
2018-12-31T11:16:11.006Z,8.63
2018-12-31T11:17:10.977Z,8.63
2018-12-31T11:18:10.945Z,8.61
2018-12-31T11:19:10.914Z,8.62
2018-12-31T11:20:10.882Z,8.63
2018-12-31T11:21:10.852Z,8.53
2018-12-31T11:22:10.823Z,8.55
2018-12-31T11:23:10.789Z,8.59
2018-12-31T11:24:10.756Z,8.63
2018-12-31T11:25:10.727Z,8.62
2018-12-31T11:26:10.694Z,8.74
2018-12-31T11:27:10.663Z,8.80
2018-12-31T11:28:10.639Z,8.73
2018-12-31T11:29:10.604Z,8.76
2018-12-31T11:30:10.569Z,8.76
2018-12-31T11:31:10.538Z,8.91
2018-12-31T11:32:10.507Z,9.04
2018-12-31T11:33:10.476Z,9.02
2018-12-31T11:34:10.446Z,9.24
2018-12-31T11:35:10.451Z,9.29
2018-12-31T11:36:10.384Z,9.32
2018-12-31T11:37:10.354Z,9.33
2018-12-31T11:38:10.322Z,9.21
2018-12-31T11:39:10.289Z,9.10
2018-12-31T11:40:10.259Z,9.08
2018-12-31T11:41:10.230Z,9.05
2018-12-31T11:42:10.197Z,8.94
2018-12-31T11:43:10.167Z,9.02
2018-12-31T11:44:10.137Z,8.98
2018-12-31T11:45:10.106Z,8.83
2018-12-31T11:46:10.074Z,8.91
2018-12-31T11:47:10.043Z,8.81
2018-12-31T11:48:10.013Z,8.92
2018-12-31T11:49:09.981Z,8.94
2018-12-31T11:50:09.951Z,8.98
2018-12-31T11:51:09.919Z,8.96
2018-12-31T11:52:09.888Z,8.84
2018-12-31T11:53:09.857Z,8.84
2018-12-31T11:54:09.828Z,8.89
2018-12-31T11:55:09.797Z,8.86
2018-12-31T11:56:09.767Z,8.91
2018-12-31T11:57:09.736Z,8.76
2018-12-31T11:58:09.702Z,8.79
2018-12-31T11:59:09.670Z,8.71
2018-12-31T12:00:09.641Z,8.73
2018-12-31T12:01:09.610Z,8.70
2018-12-31T12:02:09.579Z,8.66
2018-12-31T12:03:09.548Z,8.68
2018-12-31T12:04:09.517Z,8.71
2018-12-31T12:05:09.486Z,8.77
2018-12-31T12:06:09.455Z,8.73
2018-12-31T12:07:09.422Z,8.73
2018-12-31T12:08:09.392Z,8.77
2018-12-31T12:09:09.360Z,8.65
2018-12-31T12:10:09.329Z,8.62
2018-12-31T12:11:09.297Z,8.61
2018-12-31T12:12:09.266Z,8.58
2018-12-31T12:13:09.236Z,8.68
2018-12-31T12:14:09.203Z,8.68
2018-12-31T12:15:09.174Z,8.70
2018-12-31T12:16:09.159Z,8.59
2018-12-31T12:17:09.111Z,8.61
2018-12-31T12:18:09.081Z,8.58
2018-12-31T12:19:09.052Z,8.58
2018-12-31T12:20:09.018Z,8.59
2018-12-31T12:21:08.985Z,8.65
2018-12-31T12:22:08.954Z,8.68
2018-12-31T12:23:08.924Z,8.66
2018-12-31T12:24:08.891Z,8.66
2018-12-31T12:25:08.861Z,8.76
2018-12-31T12:26:08.829Z,8.68
2018-12-31T12:27:08.798Z,8.68
2018-12-31T12:28:08.771Z,8.79
2018-12-31T12:29:08.736Z,8.76
2018-12-31T12:30:08.705Z,8.77
2018-12-31T12:31:08.672Z,8.80
2018-12-31T12:32:08.642Z,8.70
2018-12-31T12:33:08.610Z,8.76
2018-12-31T12:34:08.579Z,8.73
2018-12-31T12:35:08.548Z,8.77
2018-12-31T12:36:08.517Z,8.76
2018-12-31T12:37:08.487Z,8.77
2018-12-31T12:38:08.454Z,8.76
2018-12-31T12:39:08.422Z,8.79
2018-12-31T12:40:08.396Z,8.76
2018-12-31T12:41:08.361Z,8.80
2018-12-31T12:42:08.329Z,8.87
2018-12-31T12:43:08.298Z,8.86
2018-12-31T12:44:08.266Z,8.89
2018-12-31T12:45:08.235Z,8.86
2018-12-31T12:46:08.205Z,8.95
2018-12-31T12:47:08.328Z,8.96
2018-12-31T12:48:08.144Z,8.83
2018-12-31T12:49:08.112Z,8.86
2018-12-31T12:50:08.080Z,8.84
2018-12-31T12:51:08.048Z,8.87
2018-12-31T12:52:08.018Z,8.94
2018-12-31T12:53:07.987Z,8.80
2018-12-31T12:54:07.954Z,8.79
2018-12-31T12:55:07.924Z,8.84
2018-12-31T12:56:07.974Z,8.70
2018-12-31T12:57:07.862Z,8.73
2018-12-31T12:58:07.828Z,8.79
2018-12-31T12:59:07.799Z,8.81
2018-12-31T13:00:07.767Z,8.70
2018-12-31T13:01:07.739Z,8.76
2018-12-31T13:02:07.705Z,8.70
2018-12-31T13:03:07.675Z,8.80
2018-12-31T13:04:07.643Z,8.77
2018-12-31T13:05:07.613Z,8.74
2018-12-31T13:06:07.581Z,8.76
2018-12-31T13:07:07.549Z,8.79
2018-12-31T13:08:07.520Z,8.79
2018-12-31T13:09:07.487Z,8.79
2018-12-31T13:10:07.459Z,8.79
2018-12-31T13:11:07.425Z,8.76
2018-12-31T13:12:07.393Z,8.74
2018-12-31T13:13:07.364Z,8.81
2018-12-31T13:14:07.330Z,8.76
2018-12-31T13:15:07.300Z,8.79
2018-12-31T13:16:07.268Z,8.81
2018-12-31T13:17:07.238Z,8.77
2018-12-31T13:18:07.206Z,8.76